Terminal Aerodrome Forecast
Issued by NWS

Home | Current Version | Previous Version | Text Only | Print | Product List | Glossary On
Versions: 1 2 3 4 5 6 7 8 9 10 11 12 13 14 15 16 17 18 19 20 21 22 23 24
000
FTUS42 KMLB 291732
TAFISM
TAF
KISM 291732Z 2918/3018 29006KT P6SM VCTS FEW025 SCT035CB BKN050
     FM300000 24005KT P6SM BKN080 BKN250
     FM300600 23003KT P6SM SCT005 SCT100 BKN250
     FM301400 23009KT P6SM VCSH SCT020 SCT050 BKN250=

USA.gov is the U.S. government's official web portal to all federal, state and local government web resources and services.